Emma Bardán — ECJU — position and weather

sailwx.info

Track history (hours):
 
Tides and Currents Weather Stations Pressure Air Temp Water Temp Dewpoint Dewpoint Depression Visibility Wind Speed Wind Dir Waves Ship Positions

Oceanographic research ship Emma Bardán (Spain)

Ship's website: http://www.mapa.es/es/pesca/pags/emma_web/index.htm

Last reported at 2017-Oct-10 22:39 UTC. Time now 2017-Dec-18 09:18 UTC.
Position N 43°42' W 006°02'.
Warning: this ship's position is months out of date.

Length 29 m; draft 3.7 m.

Type: . MMSI: 224756000.

Date/timePositionNaut miles runAvg speedWind from/ knotsBaromVisibWave heightAir tempDewpointWater temp
2017-Oct-10 22:39N 43°42' W 006°02'110.1
2017-Oct-10 22:30N 43°42' W 005°60'610.5
2017-Oct-10 21:58N 43°42' W 005°52'511.3
2017-Oct-10 21:30N 43°41' W 005°45'811.1
2017-Oct-10 20:47N 43°41' W 005°34'311.3
2017-Oct-10 20:29N 43°40' W 005°29'510.9
2017-Oct-10 20:01N 43°40' W 005°22'510.8
2017-Oct-10 19:30N 43°39' W 005°14'611.0
2017-Oct-10 19:00N 43°38' W 005°07'1811.0
2017-Oct-10 17:21N 43°37' W 004°42'410.9
2017-Oct-10 16:59N 43°36' W 004°36'510.8
2017-Oct-10 16:30N 43°36' W 004°29'1110.9
2017-Oct-10 15:28N 43°35' W 004°13'510.9
2017-Oct-10 15:01N 43°34' W 004°07'1111.3
2017-Oct-10 14:01N 43°33' W 003°51'610.9
2017-Oct-10 13:30N 43°33' W 003°44'510.9
2017-Oct-10 13:00N 43°33' W 003°36'611.9
2017-Oct-10 12:30N 43°32' W 003°28'611.3
2017-Oct-10 12:00N 43°31' W 003°20'611.0
2017-Oct-10 11:30N 43°31' W 003°13'510.7
2017-Oct-10 11:01N 43°30' W 003°05'611.2
2017-Oct-10 10:30N 43°30' W 002°58'611.5
2017-Oct-10 10:01N 43°29' W 002°50'611.6
2017-Oct-10 09:31N 43°29' W 002°42'611.2
2017-Oct-10 09:00N 43°27' W 002°34'511.0
2017-Oct-10 08:31N 43°26' W 002°27'511.0
2017-Oct-10 08:00N 43°24' W 002°20'511.0
2017-Oct-10 07:31N 43°23' W 002°13'510.9
2017-Oct-10 07:01N 43°22' W 002°05'510.9
2017-Oct-10 06:30N 43°21' W 001°58'2 4.8
2017-Oct-10 06:00N 43°19' W 001°56'0 0.0
2017-Oct-10 05:29N 43°19' W 001°56'0 0.0
2017-Oct-10 05:00N 43°19' W 001°56'0 0.0
2017-Oct-10 04:30N 43°19' W 001°56'0 0.0
2017-Oct-10 04:01N 43°19' W 001°56'0 0.0
2017-Oct-10 03:30N 43°19' W 001°56'0 0.0
2017-Oct-10 03:01N 43°19' W 001°56'0 0.0
2017-Oct-10 02:25N 43°19' W 001°56'0 0.0
2017-Oct-10 01:52N 43°19' W 001°56'0 0.0
2017-Oct-10 00:42N 43°19' W 001°56'0 0.0
2017-Oct-10 00:30N 43°19' W 001°56'0 0.0
2017-Oct-10 00:00N 43°19' W 001°56'0 0.0
2017-Oct-09 23:30N 43°19' W 001°56'0 0.0
2017-Oct-09 22:37N 43°19' W 001°56'0 0.0
2017-Oct-09 21:54N 43°19' W 001°56'0 0.0
2017-Oct-09 21:29N 43°19' W 001°56'0 0.0
2017-Oct-09 21:00N 43°19' W 001°56'0 0.0
2017-Oct-09 20:30N 43°19' W 001°56'0 0.0
2017-Oct-09 20:00N 43°19' W 001°56'0 0.0
2017-Oct-09 19:29N 43°19' W 001°56'0 0.0
2017-Oct-09 19:00N 43°19' W 001°56'0 0.0
2017-Oct-09 18:31N 43°19' W 001°56'0 0.0
2017-Oct-09 18:00N 43°19' W 001°56'0 0.0
2017-Oct-09 17:30N 43°19' W 001°56'0 0.0
2017-Oct-09 17:01N 43°19' W 001°56'0 0.0
2017-Oct-09 16:31N 43°19' W 001°56'0 0.0
2017-Oct-09 16:01N 43°19' W 001°56'0 0.0
2017-Oct-09 15:31N 43°19' W 001°56'0 0.0
2017-Oct-09 15:00N 43°19' W 001°56'0 0.0
2017-Oct-09 14:30N 43°19' W 001°56'0 0.0
2017-Oct-09 14:00N 43°19' W 001°56'0 0.0
2017-Oct-09 13:30N 43°19' W 001°56'0 0.0
2017-Oct-09 12:23N 43°19' W 001°56'0 0.0
2017-Oct-09 11:51N 43°19' W 001°56'0 0.0
2017-Oct-09 11:29N 43°19' W 001°56'0 0.0
2017-Oct-09 11:00N 43°19' W 001°56'0 0.0
2017-Oct-09 10:30N 43°19' W 001°56'0 0.0
2017-Oct-09 09:39N 43°19' W 001°56'0 0.0
2017-Oct-09 09:21N 43°19' W 001°56'0 0.0
2017-Oct-09 09:00N 43°19' W 001°56'0 0.0
2017-Oct-09 08:30N 43°19' W 001°56'0 0.0
2017-Oct-09 08:00N 43°19' W 001°56'0 0.0
2017-Oct-09 07:30N 43°19' W 001°56'0 0.4
2017-Oct-09 07:00N 43°19' W 001°55'3 6.7
2017-Oct-09 06:30N 43°22' W 001°58'0 0.6
2017-Oct-09 06:01N 43°22' W 001°58'2 4.5
2017-Oct-09 05:30N 43°24' W 001°56'3 5.0
2017-Oct-09 05:00N 43°26' W 001°56'2 5.0
2017-Oct-09 04:31N 43°29' W 001°56'3 5.1
2017-Oct-09 04:01N 43°31' W 001°57'510.0
2017-Oct-09 03:31N 43°36' W 001°57'510.5
2017-Oct-09 03:00N 43°42' W 001°57'510.6
2017-Oct-09 02:31N 43°47' W 001°58'510.7
2017-Oct-09 02:01N 43°52' W 001°58'510.9
2017-Oct-09 01:31N 43°58' W 001°59'510.7
2017-Oct-09 01:00N 44°03' W 001°59'510.6
2017-Oct-09 00:31N 44°08' W 001°59'510.5
2017-Oct-09 00:00N 44°14' W 001°60'1110.4
2017-Oct-08 22:55N 44°25' W 002°00'510.6
2017-Oct-08 22:24N 44°30' W 002°01'510.4
2017-Oct-08 21:55N 44°35' W 002°02'410.2
2017-Oct-08 21:30N 44°40' W 002°02'7610.7
2017-Oct-08 14:22N 45°55' W 002°10'35 9.1
2017-Oct-08 10:32N 46°29' W 002°24'12110.4
2017-Oct-07 22:50N 47°43' W 004°45'410.2
2017-Oct-07 22:30N 47°45' W 004°49'510.7
2017-Oct-07 22:01N 47°48' W 004°56'5 9.8
2017-Oct-07 21:30N 47°51' W 005°02'2 3.1
2017-Oct-07 21:00N 47°51' W 005°04'1 2.5
2017-Oct-07 20:30N 47°51' W 005°06'1 2.4
2017-Oct-07 20:00N 47°50' W 005°07'1 2.8
2017-Oct-07 19:30N 47°49' W 005°09'4 8.2
2017-Oct-07 19:00N 47°52' W 005°04'4 6.9
2017-Oct-07 18:28N 47°50' W 005°09'4 9.2
2017-Oct-07 17:59N 47°49' W 005°15'14 3.4
2017-Oct-07 13:50N 48°02' W 005°23'4 8.3
2017-Oct-07 13:18N 48°05' W 005°17'3 8.8
2017-Oct-07 13:00N 48°06' W 005°14'4 8.7
2017-Oct-07 12:31N 48°09' W 005°09'3 7.0
2017-Oct-07 12:01N 48°10' W 005°04'1 2.2
2017-Oct-07 11:30N 48°11' W 005°03'3 3.9
2017-Oct-07 10:50N 48°12' W 004°60'1 2.4
2017-Oct-07 10:31N 48°12' W 005°01'2 3.2
2017-Oct-07 10:00N 48°11' W 005°03'5 9.6
2017-Oct-07 09:30N 48°14' W 004°57'5 9.2
2017-Oct-07 09:01N 48°16' W 004°51'4 8.6
2017-Oct-07 08:31N 48°12' W 004°48'5 9.7
2017-Oct-07 08:01N 48°08' W 004°46'5 9.1
2017-Oct-07 07:31N 48°03' W 004°46'3 6.4
2017-Oct-07 07:01N 47°60' W 004°45'4 8.6
2017-Oct-07 06:30N 47°58' W 004°51'2 3.6
2017-Oct-07 06:00N 47°56' W 004°53'0 0.6
2017-Oct-07 05:31N 47°56' W 004°53'1 1.1
2017-Oct-07 05:01N 47°56' W 004°54'1 1.1
2017-Oct-07 04:31N 47°57' W 004°53'0 0.8
2017-Oct-07 04:00N 47°57' W 004°53'1 2.2
2017-Oct-07 03:31N 47°57' W 004°52'0 0.7
2017-Oct-07 03:00N 47°57' W 004°52'2 3.5
2017-Oct-07 02:31N 47°57' W 004°50'3 5.4
2017-Oct-07 02:00N 47°56' W 004°46'3 5.6
2017-Oct-07 01:31N 47°55' W 004°42'3 5.5
2017-Oct-07 01:00N 47°53' W 004°39'3 5.4
2017-Oct-07 00:31N 47°52' W 004°35'3 5.5
2017-Oct-07 00:00N 47°51' W 004°32'3 5.5
2017-Oct-06 23:29N 47°49' W 004°28'2 2.4
2017-Oct-06 22:50N 47°50' W 004°25'1 3.5
2017-Oct-06 22:27N 47°51' W 004°24'2 4.8
2017-Oct-06 21:58N 47°49' W 004°27'3 6.0
2017-Oct-06 21:25N 47°47' W 004°31'1 2.8
2017-Oct-06 20:53N 47°47' W 004°33'1 3.1
2017-Oct-06 20:29N 47°46' W 004°34'7 5.6
2017-Oct-06 19:16N 47°50' W 004°42'311.3
2017-Oct-06 18:59N 47°52' W 004°45'511.6
2017-Oct-06 18:31N 47°56' W 004°51'4 8.7
2017-Oct-06 18:00N 47°55' W 004°57'5 9.1
2017-Oct-06 17:31N 47°52' W 005°03'26 2.2
2017-Oct-06 05:54N 47°51' W 004°24'6 4.6
2017-Oct-06 04:39N 47°52' W 004°33'1 4.9
2017-Oct-06 04:26N 47°52' W 004°34'1 1.7
2017-Oct-06 04:00N 47°52' W 004°35'0 0.6
2017-Oct-06 03:27N 47°52' W 004°36'1 2.1
2017-Oct-06 03:00N 47°53' W 004°37'3 5.3
2017-Oct-06 02:30N 47°53' W 004°41'1 2.8
2017-Oct-06 02:00N 47°53' W 004°39'3 5.1
2017-Oct-06 01:30N 47°52' W 004°35'3 4.9
2017-Oct-06 00:57N 47°50' W 004°33'2 5.3
2017-Oct-06 00:30N 47°48' W 004°31'3 5.3
2017-Oct-05 23:59N 47°45' W 004°30'3 5.4
2017-Oct-05 23:22N 47°42' W 004°29'5 5.1
2017-Oct-05 22:26N 47°37' W 004°27'13 4.4
2017-Oct-05 19:34N 47°38' W 004°09'3 4.0
2017-Oct-05 18:48N 47°40' W 004°05'3 2.2
2017-Oct-05 17:38N 47°41' W 004°08'3 3.9
2017-Oct-05 16:58N 47°40' W 004°05'10 4.7
2017-Oct-05 14:52N 47°39' W 003°50'4 9.5
2017-Oct-05 14:25N 47°43' W 003°48'1 2.0
2017-Oct-05 13:52N 47°42' W 003°48'410.0
2017-Oct-05 13:30N 47°41' W 003°43'510.3
2017-Oct-05 13:01N 47°36' W 003°39'510.0
2017-Oct-05 12:31N 47°32' W 003°34'510.2
2017-Oct-05 12:01N 47°28' W 003°30'510.4
2017-Oct-05 11:31N 47°24' W 003°26'510.6
2017-Oct-05 11:01N 47°20' W 003°21'510.5
2017-Oct-05 10:30N 47°15' W 003°17'610.4
2017-Oct-05 09:54N 47°10' W 003°11'410.3
2017-Oct-05 09:30N 47°07' W 003°07'510.5
2017-Oct-05 09:01N 47°03' W 003°03'510.5
2017-Oct-05 08:31N 46°59' W 002°58'510.5
2017-Oct-05 08:00N 46°55' W 002°53'510.4
2017-Oct-05 07:31N 46°51' W 002°48'510.3
2017-Oct-05 07:01N 46°47' W 002°42'510.3
2017-Oct-05 06:31N 46°44' W 002°37'5 9.3
2017-Oct-05 06:00N 46°39' W 002°38'510.4
2017-Oct-05 05:31N 46°35' W 002°34'510.2
2017-Oct-05 05:00N 46°30' W 002°29'510.2
2017-Oct-05 04:31N 46°26' W 002°25'610.3
2017-Oct-05 03:56N 46°22' W 002°20'410.3
2017-Oct-05 03:30N 46°18' W 002°16'10110.7
2017-Oct-04 18:04N 44°37' W 002°02'78 2.0
2017-Oct-03 01:59N 43°19' W 001°56'0 0.0
2017-Oct-03 01:30N 43°19' W 001°56'0 0.0
2017-Oct-03 00:59N 43°19' W 001°56'0 0.0
2017-Oct-03 00:30N 43°19' W 001°56'0 0.0
2017-Oct-02 23:58N 43°19' W 001°56'0 0.0
2017-Oct-02 23:28N 43°19' W 001°56'0 0.0
2017-Oct-02 23:00N 43°19' W 001°56'0 0.0
2017-Oct-02 22:28N 43°19' W 001°56'0 0.0
2017-Oct-02 21:58N 43°19' W 001°56'0 0.0
2017-Oct-02 21:21N 43°19' W 001°56'0 0.0
2017-Oct-02 21:00N 43°19' W 001°56'0 0.0
2017-Oct-02 20:31N 43°19' W 001°56'0 0.0
2017-Oct-02 20:00N 43°19' W 001°56'0 0.0
2017-Oct-02 19:30N 43°19' W 001°56'0 0.0
2017-Oct-02 19:01N 43°19' W 001°56'0 0.0
2017-Oct-02 18:28N 43°19' W 001°56'0 0.0
2017-Oct-02 17:25N 43°19' W 001°56'0 0.0
2017-Oct-02 17:00N 43°19' W 001°56'0 0.0
2017-Oct-02 15:24N 43°19' W 001°56'0 0.0
2017-Oct-02 14:54N 43°19' W 001°56'0 0.0
2017-Oct-02 14:27N 43°19' W 001°56'0 0.0
2017-Oct-02 13:54N 43°19' W 001°56'0 0.0
2017-Oct-02 13:22N 43°19' W 001°56'0 0.0
2017-Oct-02 13:00N 43°19' W 001°56'0 0.0
2017-Oct-02 12:29N 43°19' W 001°56'0 0.0
2017-Oct-02 11:58N 43°19' W 001°56'0 0.0
2017-Oct-02 11:30N 43°19' W 001°56'0 0.0
2017-Oct-02 10:52N 43°19' W 001°56'0 0.0
2017-Oct-02 10:28N 43°19' W 001°56'0 0.0
2017-Oct-02 09:52N 43°19' W 001°56'0 0.0
2017-Oct-02 09:26N 43°19' W 001°56'0 0.0
2017-Oct-02 08:59N 43°19' W 001°56'0 0.0
2017-Oct-02 08:30N 43°19' W 001°56'0 0.0
2017-Oct-02 08:00N 43°19' W 001°56'0 0.0
2017-Oct-02 07:30N 43°19' W 001°56'0 0.0
2017-Oct-02 07:00N 43°19' W 001°56'0 0.0
2017-Oct-02 06:29N 43°19' W 001°56'0 0.0
2017-Oct-02 05:59N 43°19' W 001°56'0 0.0
2017-Oct-02 05:29N 43°19' W 001°56'0 0.0
2017-Oct-02 04:57N 43°19' W 001°56'0 0.0
2017-Oct-02 04:30N 43°19' W 001°56'0 0.0
2017-Oct-02 03:58N 43°19' W 001°56'0 0.0
2017-Oct-02 03:30N 43°19' W 001°56'0 0.0
2017-Oct-02 02:55N 43°19' W 001°56'0 0.0
2017-Oct-02 02:30N 43°19' W 001°56'0 0.0
2017-Oct-02 01:37N 43°19' W 001°56'0 0.0
2017-Oct-02 01:27N 43°19' W 001°56'0 0.0
2017-Oct-02 01:00N 43°19' W 001°56'0 0.0
2017-Oct-02 00:25N 43°19' W 001°56'0 0.0
2017-Oct-01 23:49N 43°19' W 001°56'0 0.0
2017-Oct-01 22:44N 43°19' W 001°56'0 0.0
2017-Oct-01 22:30N 43°19' W 001°56'0 0.0
2017-Oct-01 21:55N 43°19' W 001°56'0 0.0
2017-Oct-01 21:28N 43°19' W 001°56'0 0.0
2017-Oct-01 20:47N 43°19' W 001°56'0 0.0
2017-Oct-01 20:24N 43°19' W 001°56'0 0.0
2017-Oct-01 19:56N 43°19' W 001°56'0 0.0
2017-Oct-01 19:28N 43°19' W 001°56'0 0.0
2017-Oct-01 18:59N 43°19' W 001°56'0 0.0
2017-Oct-01 18:30N 43°19' W 001°56'0 0.0
2017-Oct-01 17:28N 43°19' W 001°56'0 0.0
2017-Oct-01 16:59N 43°19' W 001°56'0 0.0
2017-Oct-01 16:23N 43°19' W 001°56'0 0.0
2017-Oct-01 15:53N 43°19' W 001°56'0 0.0
2017-Oct-01 15:20N 43°19' W 001°56'0 0.0
2017-Oct-01 14:56N 43°19' W 001°56'0 0.0
2017-Oct-01 14:29N 43°19' W 001°56'0 0.0
2017-Oct-01 13:58N 43°19' W 001°56'0 0.0
2017-Oct-01 13:27N 43°19' W 001°56'0 0.0
2017-Oct-01 12:58N 43°19' W 001°56'0 0.0
2017-Oct-01 12:29N 43°19' W 001°56'0 0.0
2017-Oct-01 11:57N 43°19' W 001°56'0 0.0
2017-Oct-01 11:23N 43°19' W 001°56'0 0.0
2017-Oct-01 10:59N 43°19' W 001°56'0 0.0
2017-Oct-01 10:30N 43°19' W 001°56'0 0.0
2017-Oct-01 09:51N 43°19' W 001°56'0 0.0
2017-Oct-01 09:19N 43°19' W 001°56'0 0.0
2017-Oct-01 07:41N 43°19' W 001°56'0 0.0
2017-Oct-01 07:25N 43°19' W 001°56'0 0.0
2017-Oct-01 06:59N 43°19' W 001°56'0 0.0
2017-Oct-01 06:29N 43°19' W 001°56'0 0.0
2017-Oct-01 05:58N 43°19' W 001°56'0 0.0
2017-Oct-01 05:28N 43°19' W 001°56'0 0.0
2017-Oct-01 05:00N 43°19' W 001°56'0 0.0
2017-Oct-01 04:30N 43°19' W 001°56'0 0.0
2017-Oct-01 04:01N 43°19' W 001°56'0 0.0
2017-Oct-01 03:30N 43°19' W 001°56'0 0.0
2017-Oct-01 02:59N 43°19' W 001°56'  
Track history (hours):
 
Tides and Currents Weather Stations Pressure Air Temp Water Temp Dewpoint Dewpoint Depression Visibility Wind Speed Wind Dir Waves Ship Positions

Oceanographic research ship Emma Bardán (Spain)

Ship's website: http://www.mapa.es/es/pesca/pags/emma_web/index.htm

Last reported at 2017-Oct-10 22:39 UTC. Time now 2017-Dec-18 09:18 UTC.
Position N 43°42' W 006°02'.
Warning: this ship's position is months out of date.

Length 29 m; draft 3.7 m.

Type: . MMSI: 224756000.

Date/timePositionNaut miles runAvg speedWind from/ knotsBaromVisibWave heightAir tempDewpointWater temp
2017-Oct-10 22:39N 43°42' W 006°02'110.1
2017-Oct-10 22:30N 43°42' W 005°60'610.5
2017-Oct-10 21:58N 43°42' W 005°52'511.3
2017-Oct-10 21:30N 43°41' W 005°45'811.1
2017-Oct-10 20:47N 43°41' W 005°34'311.3
2017-Oct-10 20:29N 43°40' W 005°29'510.9
2017-Oct-10 20:01N 43°40' W 005°22'510.8
2017-Oct-10 19:30N 43°39' W 005°14'611.0
2017-Oct-10 19:00N 43°38' W 005°07'1811.0
2017-Oct-10 17:21N 43°37' W 004°42'410.9
2017-Oct-10 16:59N 43°36' W 004°36'510.8
2017-Oct-10 16:30N 43°36' W 004°29'1110.9
2017-Oct-10 15:28N 43°35' W 004°13'510.9
2017-Oct-10 15:01N 43°34' W 004°07'1111.3
2017-Oct-10 14:01N 43°33' W 003°51'610.9
2017-Oct-10 13:30N 43°33' W 003°44'510.9
2017-Oct-10 13:00N 43°33' W 003°36'611.9
2017-Oct-10 12:30N 43°32' W 003°28'611.3
2017-Oct-10 12:00N 43°31' W 003°20'611.0
2017-Oct-10 11:30N 43°31' W 003°13'510.7
2017-Oct-10 11:01N 43°30' W 003°05'611.2
2017-Oct-10 10:30N 43°30' W 002°58'611.5
2017-Oct-10 10:01N 43°29' W 002°50'611.6
2017-Oct-10 09:31N 43°29' W 002°42'611.2
2017-Oct-10 09:00N 43°27' W 002°34'511.0
2017-Oct-10 08:31N 43°26' W 002°27'511.0
2017-Oct-10 08:00N 43°24' W 002°20'511.0
2017-Oct-10 07:31N 43°23' W 002°13'510.9
2017-Oct-10 07:01N 43°22' W 002°05'510.9
2017-Oct-10 06:30N 43°21' W 001°58'2 4.8
2017-Oct-10 06:00N 43°19' W 001°56'0 0.0
2017-Oct-10 05:29N 43°19' W 001°56'0 0.0
2017-Oct-10 05:00N 43°19' W 001°56'0 0.0
2017-Oct-10 04:30N 43°19' W 001°56'0 0.0
2017-Oct-10 04:01N 43°19' W 001°56'0 0.0
2017-Oct-10 03:30N 43°19' W 001°56'0 0.0
2017-Oct-10 03:01N 43°19' W 001°56'0 0.0
2017-Oct-10 02:25N 43°19' W 001°56'0 0.0
2017-Oct-10 01:52N 43°19' W 001°56'0 0.0
2017-Oct-10 00:42N 43°19' W 001°56'0 0.0
2017-Oct-10 00:30N 43°19' W 001°56'0 0.0
2017-Oct-10 00:00N 43°19' W 001°56'0 0.0
2017-Oct-09 23:30N 43°19' W 001°56'0 0.0
2017-Oct-09 22:37N 43°19' W 001°56'0 0.0
2017-Oct-09 21:54N 43°19' W 001°56'0 0.0
2017-Oct-09 21:29N 43°19' W 001°56'0 0.0
2017-Oct-09 21:00N 43°19' W 001°56'0 0.0
2017-Oct-09 20:30N 43°19' W 001°56'0 0.0
2017-Oct-09 20:00N 43°19' W 001°56'0 0.0
2017-Oct-09 19:29N 43°19' W 001°56'0 0.0
2017-Oct-09 19:00N 43°19' W 001°56'0 0.0
2017-Oct-09 18:31N 43°19' W 001°56'0 0.0
2017-Oct-09 18:00N 43°19' W 001°56'0 0.0
2017-Oct-09 17:30N 43°19' W 001°56'0 0.0
2017-Oct-09 17:01N 43°19' W 001°56'0 0.0
2017-Oct-09 16:31N 43°19' W 001°56'0 0.0
2017-Oct-09 16:01N 43°19' W 001°56'0 0.0
2017-Oct-09 15:31N 43°19' W 001°56'0 0.0
2017-Oct-09 15:00N 43°19' W 001°56'0 0.0
2017-Oct-09 14:30N 43°19' W 001°56'0 0.0
2017-Oct-09 14:00N 43°19' W 001°56'0 0.0
2017-Oct-09 13:30N 43°19' W 001°56'0 0.0
2017-Oct-09 12:23N 43°19' W 001°56'0 0.0
2017-Oct-09 11:51N 43°19' W 001°56'0 0.0
2017-Oct-09 11:29N 43°19' W 001°56'0 0.0
2017-Oct-09 11:00N 43°19' W 001°56'0 0.0
2017-Oct-09 10:30N 43°19' W 001°56'0 0.0
2017-Oct-09 09:39N 43°19' W 001°56'0 0.0
2017-Oct-09 09:21N 43°19' W 001°56'0 0.0
2017-Oct-09 09:00N 43°19' W 001°56'0 0.0
2017-Oct-09 08:30N 43°19' W 001°56'0 0.0
2017-Oct-09 08:00N 43°19' W 001°56'0 0.0
2017-Oct-09 07:30N 43°19' W 001°56'0 0.4
2017-Oct-09 07:00N 43°19' W 001°55'3 6.7
2017-Oct-09 06:30N 43°22' W 001°58'0 0.6
2017-Oct-09 06:01N 43°22' W 001°58'2 4.5
2017-Oct-09 05:30N 43°24' W 001°56'3 5.0
2017-Oct-09 05:00N 43°26' W 001°56'2 5.0
2017-Oct-09 04:31N 43°29' W 001°56'3 5.1
2017-Oct-09 04:01N 43°31' W 001°57'510.0
2017-Oct-09 03:31N 43°36' W 001°57'510.5
2017-Oct-09 03:00N 43°42' W 001°57'510.6
2017-Oct-09 02:31N 43°47' W 001°58'510.7
2017-Oct-09 02:01N 43°52' W 001°58'510.9
2017-Oct-09 01:31N 43°58' W 001°59'510.7
2017-Oct-09 01:00N 44°03' W 001°59'510.6
2017-Oct-09 00:31N 44°08' W 001°59'510.5
2017-Oct-09 00:00N 44°14' W 001°60'1110.4
2017-Oct-08 22:55N 44°25' W 002°00'510.6
2017-Oct-08 22:24N 44°30' W 002°01'510.4
2017-Oct-08 21:55N 44°35' W 002°02'410.2
2017-Oct-08 21:30N 44°40' W 002°02'7610.7
2017-Oct-08 14:22N 45°55' W 002°10'35 9.1
2017-Oct-08 10:32N 46°29' W 002°24'12110.4
2017-Oct-07 22:50N 47°43' W 004°45'410.2
2017-Oct-07 22:30N 47°45' W 004°49'510.7
2017-Oct-07 22:01N 47°48' W 004°56'5 9.8
2017-Oct-07 21:30N 47°51' W 005°02'2 3.1
2017-Oct-07 21:00N 47°51' W 005°04'1 2.5
2017-Oct-07 20:30N 47°51' W 005°06'1 2.4
2017-Oct-07 20:00N 47°50' W 005°07'1 2.8
2017-Oct-07 19:30N 47°49' W 005°09'4 8.2
2017-Oct-07 19:00N 47°52' W 005°04'4 6.9
2017-Oct-07 18:28N 47°50' W 005°09'4 9.2
2017-Oct-07 17:59N 47°49' W 005°15'14 3.4
2017-Oct-07 13:50N 48°02' W 005°23'4 8.3
2017-Oct-07 13:18N 48°05' W 005°17'3 8.8
2017-Oct-07 13:00N 48°06' W 005°14'4 8.7
2017-Oct-07 12:31N 48°09' W 005°09'3 7.0
2017-Oct-07 12:01N 48°10' W 005°04'1 2.2
2017-Oct-07 11:30N 48°11' W 005°03'3 3.9
2017-Oct-07 10:50N 48°12' W 004°60'1 2.4
2017-Oct-07 10:31N 48°12' W 005°01'2 3.2
2017-Oct-07 10:00N 48°11' W 005°03'5 9.6
2017-Oct-07 09:30N 48°14' W 004°57'5 9.2
2017-Oct-07 09:01N 48°16' W 004°51'4 8.6
2017-Oct-07 08:31N 48°12' W 004°48'5 9.7
2017-Oct-07 08:01N 48°08' W 004°46'5 9.1
2017-Oct-07 07:31N 48°03' W 004°46'3 6.4
2017-Oct-07 07:01N 47°60' W 004°45'4 8.6
2017-Oct-07 06:30N 47°58' W 004°51'2 3.6
2017-Oct-07 06:00N 47°56' W 004°53'0 0.6
2017-Oct-07 05:31N 47°56' W 004°53'1 1.1
2017-Oct-07 05:01N 47°56' W 004°54'1 1.1
2017-Oct-07 04:31N 47°57' W 004°53'0 0.8
2017-Oct-07 04:00N 47°57' W 004°53'1 2.2
2017-Oct-07 03:31N 47°57' W 004°52'0 0.7
2017-Oct-07 03:00N 47°57' W 004°52'2 3.5
2017-Oct-07 02:31N 47°57' W 004°50'3 5.4
2017-Oct-07 02:00N 47°56' W 004°46'3 5.6
2017-Oct-07 01:31N 47°55' W 004°42'3 5.5
2017-Oct-07 01:00N 47°53' W 004°39'3 5.4
2017-Oct-07 00:31N 47°52' W 004°35'3 5.5
2017-Oct-07 00:00N 47°51' W 004°32'3 5.5
2017-Oct-06 23:29N 47°49' W 004°28'2 2.4
2017-Oct-06 22:50N 47°50' W 004°25'1 3.5
2017-Oct-06 22:27N 47°51' W 004°24'2 4.8
2017-Oct-06 21:58N 47°49' W 004°27'3 6.0
2017-Oct-06 21:25N 47°47' W 004°31'1 2.8
2017-Oct-06 20:53N 47°47' W 004°33'1 3.1
2017-Oct-06 20:29N 47°46' W 004°34'7 5.6
2017-Oct-06 19:16N 47°50' W 004°42'311.3
2017-Oct-06 18:59N 47°52' W 004°45'511.6
2017-Oct-06 18:31N 47°56' W 004°51'4 8.7
2017-Oct-06 18:00N 47°55' W 004°57'5 9.1
2017-Oct-06 17:31N 47°52' W 005°03'26 2.2
2017-Oct-06 05:54N 47°51' W 004°24'6 4.6
2017-Oct-06 04:39N 47°52' W 004°33'1 4.9
2017-Oct-06 04:26N 47°52' W 004°34'1 1.7
2017-Oct-06 04:00N 47°52' W 004°35'0 0.6
2017-Oct-06 03:27N 47°52' W 004°36'1 2.1
2017-Oct-06 03:00N 47°53' W 004°37'3 5.3
2017-Oct-06 02:30N 47°53' W 004°41'1 2.8
2017-Oct-06 02:00N 47°53' W 004°39'3 5.1
2017-Oct-06 01:30N 47°52' W 004°35'3 4.9
2017-Oct-06 00:57N 47°50' W 004°33'2 5.3
2017-Oct-06 00:30N 47°48' W 004°31'3 5.3
2017-Oct-05 23:59N 47°45' W 004°30'3 5.4
2017-Oct-05 23:22N 47°42' W 004°29'5 5.1
2017-Oct-05 22:26N 47°37' W 004°27'13 4.4
2017-Oct-05 19:34N 47°38' W 004°09'3 4.0
2017-Oct-05 18:48N 47°40' W 004°05'3 2.2
2017-Oct-05 17:38N 47°41' W 004°08'3 3.9
2017-Oct-05 16:58N 47°40' W 004°05'10 4.7
2017-Oct-05 14:52N 47°39' W 003°50'4 9.5
2017-Oct-05 14:25N 47°43' W 003°48'1 2.0
2017-Oct-05 13:52N 47°42' W 003°48'410.0
2017-Oct-05 13:30N 47°41' W 003°43'510.3
2017-Oct-05 13:01N 47°36' W 003°39'510.0
2017-Oct-05 12:31N 47°32' W 003°34'510.2
2017-Oct-05 12:01N 47°28' W 003°30'510.4
2017-Oct-05 11:31N 47°24' W 003°26'510.6
2017-Oct-05 11:01N 47°20' W 003°21'510.5
2017-Oct-05 10:30N 47°15' W 003°17'610.4
2017-Oct-05 09:54N 47°10' W 003°11'410.3
2017-Oct-05 09:30N 47°07' W 003°07'510.5
2017-Oct-05 09:01N 47°03' W 003°03'510.5
2017-Oct-05 08:31N 46°59' W 002°58'510.5
2017-Oct-05 08:00N 46°55' W 002°53'510.4
2017-Oct-05 07:31N 46°51' W 002°48'510.3
2017-Oct-05 07:01N 46°47' W 002°42'510.3
2017-Oct-05 06:31N 46°44' W 002°37'5 9.3
2017-Oct-05 06:00N 46°39' W 002°38'510.4
2017-Oct-05 05:31N 46°35' W 002°34'510.2
2017-Oct-05 05:00N 46°30' W 002°29'510.2
2017-Oct-05 04:31N 46°26' W 002°25'610.3
2017-Oct-05 03:56N 46°22' W 002°20'410.3
2017-Oct-05 03:30N 46°18' W 002°16'10110.7
2017-Oct-04 18:04N 44°37' W 002°02'78 2.0
2017-Oct-03 01:59N 43°19' W 001°56'0 0.0
2017-Oct-03 01:30N 43°19' W 001°56'0 0.0
2017-Oct-03 00:59N 43°19' W 001°56'0 0.0
2017-Oct-03 00:30N 43°19' W 001°56'0 0.0
2017-Oct-02 23:58N 43°19' W 001°56'0 0.0
2017-Oct-02 23:28N 43°19' W 001°56'0 0.0
2017-Oct-02 23:00N 43°19' W 001°56'0 0.0
2017-Oct-02 22:28N 43°19' W 001°56'0 0.0
2017-Oct-02 21:58N 43°19' W 001°56'0 0.0
2017-Oct-02 21:21N 43°19' W 001°56'0 0.0
2017-Oct-02 21:00N 43°19' W 001°56'0 0.0
2017-Oct-02 20:31N 43°19' W 001°56'0 0.0
2017-Oct-02 20:00N 43°19' W 001°56'0 0.0
2017-Oct-02 19:30N 43°19' W 001°56'0 0.0
2017-Oct-02 19:01N 43°19' W 001°56'0 0.0
2017-Oct-02 18:28N 43°19' W 001°56'0 0.0
2017-Oct-02 17:25N 43°19' W 001°56'0 0.0
2017-Oct-02 17:00N 43°19' W 001°56'0 0.0
2017-Oct-02 15:24N 43°19' W 001°56'0 0.0
2017-Oct-02 14:54N 43°19' W 001°56'0 0.0
2017-Oct-02 14:27N 43°19' W 001°56'0 0.0
2017-Oct-02 13:54N 43°19' W 001°56'0 0.0
2017-Oct-02 13:22N 43°19' W 001°56'0 0.0
2017-Oct-02 13:00N 43°19' W 001°56'0 0.0
2017-Oct-02 12:29N 43°19' W 001°56'0 0.0
2017-Oct-02 11:58N 43°19' W 001°56'0 0.0
2017-Oct-02 11:30N 43°19' W 001°56'0 0.0
2017-Oct-02 10:52N 43°19' W 001°56'0 0.0
2017-Oct-02 10:28N 43°19' W 001°56'0 0.0
2017-Oct-02 09:52N 43°19' W 001°56'0 0.0
2017-Oct-02 09:26N 43°19' W 001°56'0 0.0
2017-Oct-02 08:59N 43°19' W 001°56'0 0.0
2017-Oct-02 08:30N 43°19' W 001°56'0 0.0
2017-Oct-02 08:00N 43°19' W 001°56'0 0.0
2017-Oct-02 07:30N 43°19' W 001°56'0 0.0
2017-Oct-02 07:00N 43°19' W 001°56'0 0.0
2017-Oct-02 06:29N 43°19' W 001°56'0 0.0
2017-Oct-02 05:59N 43°19' W 001°56'0 0.0
2017-Oct-02 05:29N 43°19' W 001°56'0 0.0
2017-Oct-02 04:57N 43°19' W 001°56'0 0.0
2017-Oct-02 04:30N 43°19' W 001°56'0 0.0
2017-Oct-02 03:58N 43°19' W 001°56'0 0.0
2017-Oct-02 03:30N 43°19' W 001°56'0 0.0
2017-Oct-02 02:55N 43°19' W 001°56'0 0.0
2017-Oct-02 02:30N 43°19' W 001°56'0 0.0
2017-Oct-02 01:37N 43°19' W 001°56'0 0.0
2017-Oct-02 01:27N 43°19' W 001°56'0 0.0
2017-Oct-02 01:00N 43°19' W 001°56'0 0.0
2017-Oct-02 00:25N 43°19' W 001°56'0 0.0
2017-Oct-01 23:49N 43°19' W 001°56'0 0.0
2017-Oct-01 22:44N 43°19' W 001°56'0 0.0
2017-Oct-01 22:30N 43°19' W 001°56'0 0.0
2017-Oct-01 21:55N 43°19' W 001°56'0 0.0
2017-Oct-01 21:28N 43°19' W 001°56'0 0.0
2017-Oct-01 20:47N 43°19' W 001°56'0 0.0
2017-Oct-01 20:24N 43°19' W 001°56'0 0.0
2017-Oct-01 19:56N 43°19' W 001°56'0 0.0
2017-Oct-01 19:28N 43°19' W 001°56'0 0.0
2017-Oct-01 18:59N 43°19' W 001°56'0 0.0
2017-Oct-01 18:30N 43°19' W 001°56'0 0.0
2017-Oct-01 17:28N 43°19' W 001°56'0 0.0
2017-Oct-01 16:59N 43°19' W 001°56'0 0.0
2017-Oct-01 16:23N 43°19' W 001°56'0 0.0
2017-Oct-01 15:53N 43°19' W 001°56'0 0.0
2017-Oct-01 15:20N 43°19' W 001°56'0 0.0
2017-Oct-01 14:56N 43°19' W 001°56'0 0.0
2017-Oct-01 14:29N 43°19' W 001°56'0 0.0
2017-Oct-01 13:58N 43°19' W 001°56'0 0.0
2017-Oct-01 13:27N 43°19' W 001°56'0 0.0
2017-Oct-01 12:58N 43°19' W 001°56'0 0.0
2017-Oct-01 12:29N 43°19' W 001°56'0 0.0
2017-Oct-01 11:57N 43°19' W 001°56'0 0.0
2017-Oct-01 11:23N 43°19' W 001°56'0 0.0
2017-Oct-01 10:59N 43°19' W 001°56'0 0.0
2017-Oct-01 10:30N 43°19' W 001°56'0 0.0
2017-Oct-01 09:51N 43°19' W 001°56'0 0.0
2017-Oct-01 09:19N 43°19' W 001°56'0 0.0
2017-Oct-01 07:41N 43°19' W 001°56'0 0.0
2017-Oct-01 07:25N 43°19' W 001°56'0 0.0
2017-Oct-01 06:59N 43°19' W 001°56'0 0.0
2017-Oct-01 06:29N 43°19' W 001°56'0 0.0
2017-Oct-01 05:58N 43°19' W 001°56'0 0.0
2017-Oct-01 05:28N 43°19' W 001°56'0 0.0
2017-Oct-01 05:00N 43°19' W 001°56'0 0.0
2017-Oct-01 04:30N 43°19' W 001°56'0 0.0
2017-Oct-01 04:01N 43°19' W 001°56'0 0.0
2017-Oct-01 03:30N 43°19' W 001°56'0 0.0
2017-Oct-01 02:59N 43°19' W 001°56'  

Dump ship's entire track history